createdAt,value
2018-08-23T00:00:37.300Z,75.69
2018-08-23T00:03:12.976Z,76.35
2018-08-23T00:05:44.679Z,75.92
2018-08-23T00:08:11.708Z,76.04
2018-08-23T00:10:38.693Z,75.91
2018-08-23T00:13:06.359Z,76.85
2018-08-23T00:15:33.417Z,75.89
2018-08-23T00:18:00.444Z,75.83
2018-08-23T00:20:27.440Z,75.95
2018-08-23T00:23:02.507Z,76.75
2018-08-23T00:25:31.053Z,76.97
2018-08-23T00:27:58.168Z,77.72
2018-08-23T00:30:28.089Z,77.61
2018-08-23T00:32:55.240Z,77.92
2018-08-23T00:35:22.917Z,78.83
2018-08-23T00:37:49.952Z,79.08
2018-08-23T00:40:17.432Z,79.62
2018-08-23T00:43:18.000Z,79.99
2018-08-23T00:45:45.552Z,79.36
2018-08-23T00:48:12.575Z,79.51
2018-08-23T00:50:46.468Z,79.30
2018-08-23T00:53:13.844Z,79.42
2018-08-23T00:55:40.867Z,80.85
2018-08-23T00:58:07.885Z,81.21
2018-08-23T01:00:34.933Z,80.50
2018-08-23T01:03:03.287Z,80.96
2018-08-23T01:05:34.282Z,81.27
2018-08-23T01:08:02.427Z,80.02
2018-08-23T01:10:29.484Z,81.25
2018-08-23T01:12:58.668Z,82.62
2018-08-23T01:15:25.904Z,83.48
2018-08-23T01:18:07.485Z,84.44
2018-08-23T01:20:34.541Z,84.03
2018-08-23T01:23:01.602Z,83.11
2018-08-23T01:25:32.467Z,83.33
2018-08-23T01:27:59.536Z,83.59
2018-08-23T01:30:26.561Z,84.66
2018-08-23T01:32:53.608Z,83.75
2018-08-23T01:35:20.688Z,84.95
2018-08-23T01:37:47.673Z,84.01
2018-08-23T01:40:14.700Z,83.68
2018-08-23T01:42:41.893Z,85.21
2018-08-23T01:45:09.998Z,85.35
2018-08-23T01:47:44.249Z,85.59
2018-08-23T01:50:12.023Z,85.88
2018-08-23T01:52:43.161Z,87.62
2018-08-23T01:55:10.619Z,87.80
2018-08-23T01:57:37.668Z,88.24
2018-08-23T02:00:04.743Z,89.09
2018-08-23T02:02:31.716Z,88.50
2018-08-23T02:04:58.699Z,88.18
2018-08-23T02:07:25.746Z,86.90
2018-08-23T02:09:52.811Z,87.47
2018-08-23T02:12:19.836Z,88.59
2018-08-23T02:14:46.836Z,89.02
2018-08-23T02:17:14.053Z,90.86
2018-08-23T02:19:48.460Z,90.10
2018-08-23T02:22:15.520Z,89.62
2018-08-23T02:24:47.372Z,89.61
2018-08-23T02:27:15.212Z,90.23
2018-08-23T02:29:45.623Z,91.28
2018-08-23T02:32:12.705Z,91.58
2018-08-23T02:34:41.590Z,90.65
2018-08-23T02:37:10.240Z,91.21
2018-08-23T02:39:37.232Z,91.49
2018-08-23T02:42:04.364Z,91.76
2018-08-23T02:44:31.406Z,91.70
2018-08-23T02:47:00.888Z,93.58
2018-08-23T02:49:27.888Z,93.80
2018-08-23T02:51:54.940Z,93.25
2018-08-23T02:54:21.959Z,92.30
2018-08-23T02:56:57.112Z,92.35
2018-08-23T02:59:24.216Z,92.99
2018-08-23T03:01:51.288Z,93.98
2018-08-23T03:04:19.549Z,95.16
2018-08-23T03:06:52.753Z,95.33
2018-08-23T03:09:22.028Z,95.98
2018-08-23T03:11:50.201Z,96.37
2018-08-23T03:14:17.984Z,95.63
2018-08-23T03:16:52.467Z,95.75
2018-08-23T03:19:19.454Z,97.99
2018-08-23T03:21:49.651Z,97.97
2018-08-23T03:24:18.979Z,97.74
2018-08-23T03:26:47.235Z,98.43
2018-08-23T03:29:14.219Z,97.70
2018-08-23T03:31:41.399Z,98.33
2018-08-23T03:34:08.476Z,97.84
2018-08-23T03:36:35.468Z,98.60
2018-08-23T03:39:02.545Z,99.93
2018-08-23T03:41:29.541Z,99.68
2018-08-23T03:43:56.551Z,100.00
2018-08-23T03:46:23.534Z,100.00
2018-08-23T03:48:55.157Z,100.00
2018-08-23T03:51:22.149Z,100.00
2018-08-23T03:53:55.013Z,100.00
2018-08-23T03:56:21.996Z,100.00
2018-08-23T03:58:49.065Z,100.00
2018-08-23T04:01:16.083Z,100.00
2018-08-23T04:03:43.140Z,100.00
2018-08-23T04:06:37.107Z,100.00
2018-08-23T04:09:07.275Z,100.00
2018-08-23T04:11:34.279Z,100.00
2018-08-23T04:14:07.676Z,100.00
2018-08-23T04:16:34.721Z,100.00
2018-08-23T04:19:01.693Z,100.00
2018-08-23T04:21:29.402Z,100.00
2018-08-23T04:23:56.461Z,100.00
2018-08-23T04:26:24.515Z,100.00
2018-08-23T04:28:51.582Z,100.00
2018-08-23T04:31:18.694Z,100.00
2018-08-23T04:33:46.051Z,100.00
2018-08-23T04:36:32.142Z,100.00
2018-08-23T04:39:00.132Z,100.00
2018-08-23T04:41:28.276Z,100.00
2018-08-23T04:43:58.704Z,100.00
2018-08-23T04:46:25.727Z,100.00
2018-08-23T04:48:52.695Z,100.00
2018-08-23T04:51:19.671Z,100.00
2018-08-23T04:53:46.683Z,100.00
2018-08-23T04:56:13.671Z,100.00
2018-08-23T04:58:40.743Z,100.00
2018-08-23T05:01:07.827Z,100.00
2018-08-23T05:03:34.907Z,100.00
2018-08-23T05:06:01.886Z,100.00
2018-08-23T05:08:28.894Z,100.00
2018-08-23T05:10:55.900Z,100.00
2018-08-23T05:13:22.980Z,100.00
2018-08-23T05:15:49.976Z,100.00
2018-08-23T05:18:17.387Z,100.00
2018-08-23T05:20:44.373Z,100.00
2018-08-23T05:23:11.400Z,100.00
2018-08-23T05:25:38.339Z,100.00
2018-08-23T05:28:18.942Z,100.00
2018-08-23T05:30:46.633Z,100.00
2018-08-23T05:33:17.471Z,100.00
2018-08-23T05:35:45.749Z,100.00
2018-08-23T05:38:13.195Z,100.00
2018-08-23T05:40:48.318Z,100.00
2018-08-23T05:43:15.903Z,100.00
2018-08-23T05:45:55.716Z,100.00
2018-08-23T05:48:31.648Z,100.00
2018-08-23T05:51:05.540Z,100.00
2018-08-23T05:53:32.815Z,100.00
2018-08-23T05:56:01.266Z,100.00
2018-08-23T05:58:30.253Z,100.00
2018-08-23T06:00:57.283Z,100.00
2018-08-23T06:03:24.262Z,100.00
2018-08-23T06:05:52.004Z,100.00
2018-08-23T06:08:19.517Z,100.00
2018-08-23T06:10:47.631Z,100.00
2018-08-23T06:13:15.172Z,100.00
2018-08-23T06:15:50.819Z,100.00
2018-08-23T06:18:18.497Z,100.00
2018-08-23T06:20:45.599Z,100.00
2018-08-23T06:23:13.004Z,100.00
2018-08-23T06:25:40.362Z,100.00
2018-08-23T06:28:25.944Z,100.00
2018-08-23T06:30:57.068Z,100.00
2018-08-23T06:33:37.815Z,100.00
2018-08-23T06:36:05.591Z,100.00
2018-08-23T06:38:33.675Z,100.00
2018-08-23T06:41:01.787Z,100.00
2018-08-23T06:43:29.172Z,100.00
2018-08-23T06:45:56.230Z,100.00
2018-08-23T06:48:23.283Z,100.00
2018-08-23T06:50:57.175Z,100.00
2018-08-23T06:53:33.113Z,100.00
2018-08-23T06:56:00.227Z,100.00
2018-08-23T06:58:27.189Z,100.00
2018-08-23T07:00:54.240Z,100.00
2018-08-23T07:03:21.320Z,100.00
2018-08-23T07:05:48.404Z,100.00
2018-08-23T07:08:15.387Z,100.00
2018-08-23T07:10:42.428Z,100.00
2018-08-23T07:13:09.379Z,100.00
2018-08-23T07:15:36.474Z,100.00
2018-08-23T07:18:07.960Z,100.00
2018-08-23T07:20:35.075Z,100.00
2018-08-23T07:23:02.166Z,100.00
2018-08-23T07:25:33.882Z,100.00
2018-08-23T07:28:00.856Z,100.00
2018-08-23T07:30:28.948Z,100.00
2018-08-23T07:32:56.022Z,100.00
2018-08-23T07:35:23.025Z,100.00
2018-08-23T07:37:51.287Z,99.77
2018-08-23T07:40:20.288Z,100.00
2018-08-23T07:42:48.632Z,100.00
2018-08-23T07:45:15.724Z,99.51
2018-08-23T07:47:51.072Z,98.91
2018-08-23T07:50:19.777Z,98.30
2018-08-23T07:52:50.087Z,98.05
2018-08-23T07:55:17.187Z,97.49
2018-08-23T07:57:46.191Z,97.38
2018-08-23T08:00:34.439Z,96.00
2018-08-23T08:03:01.510Z,95.26
2018-08-23T08:05:31.219Z,95.08
2018-08-23T08:07:58.208Z,93.88
2018-08-23T08:10:30.128Z,93.43
2018-08-23T08:12:57.380Z,91.99
2018-08-23T08:15:24.489Z,92.48
2018-08-23T08:17:51.542Z,91.40
2018-08-23T08:20:18.720Z,91.22
2018-08-23T08:22:46.041Z,91.98
2018-08-23T08:25:20.621Z,91.83
2018-08-23T08:27:48.851Z,90.03
2018-08-23T08:30:19.306Z,89.29
2018-08-23T08:32:46.407Z,89.52
2018-08-23T08:35:19.672Z,89.12
2018-08-23T08:37:48.143Z,88.69
2018-08-23T08:40:20.884Z,88.99
2018-08-23T08:42:48.053Z,88.38
2018-08-23T08:45:15.077Z,88.34
2018-08-23T08:47:44.712Z,87.39
2018-08-23T08:50:13.856Z,87.17
2018-08-23T08:52:40.976Z,86.92
2018-08-23T08:55:10.473Z,86.35
2018-08-23T08:57:42.350Z,84.79
2018-08-23T09:00:09.949Z,85.72
2018-08-23T09:02:37.196Z,85.17
2018-08-23T09:05:04.672Z,85.67
2018-08-23T09:07:32.754Z,81.55
2018-08-23T09:09:59.828Z,82.20
2018-08-23T09:12:29.690Z,81.66
2018-08-23T09:14:57.127Z,80.53
2018-08-23T09:17:51.882Z,80.23
2018-08-23T09:20:19.167Z,79.93
2018-08-23T09:22:48.188Z,77.04
2018-08-23T09:25:23.325Z,76.98
2018-08-23T09:27:50.907Z,74.15
2018-08-23T09:30:23.564Z,74.28
2018-08-23T09:32:50.592Z,74.39
2018-08-23T09:35:17.937Z,73.69
2018-08-23T09:37:46.100Z,72.71
2018-08-23T09:40:13.232Z,72.68
2018-08-23T09:42:40.245Z,74.81
2018-08-23T09:45:16.947Z,74.34
2018-08-23T09:47:43.999Z,73.14
2018-08-23T09:50:11.044Z,71.24
2018-08-23T09:52:42.898Z,69.26
2018-08-23T09:55:12.085Z,69.70
2018-08-23T09:57:39.180Z,69.60
2018-08-23T10:00:07.907Z,69.31
2018-08-23T10:02:40.764Z,70.78
2018-08-23T10:05:12.370Z,72.40
2018-08-23T10:07:45.050Z,71.37
2018-08-23T10:10:17.825Z,70.35
2018-08-23T10:12:50.487Z,70.99
2018-08-23T10:15:23.099Z,72.11
2018-08-23T10:17:55.743Z,71.69
2018-08-23T10:20:28.515Z,70.48
2018-08-23T10:23:01.649Z,70.34
2018-08-23T10:25:50.174Z,69.25
2018-08-23T10:28:21.698Z,68.29
2018-08-23T10:30:48.956Z,68.07
2018-08-23T10:33:17.458Z,68.02
2018-08-23T10:36:01.468Z,67.54
2018-08-23T10:38:28.644Z,66.40
2018-08-23T10:41:01.364Z,64.40
2018-08-23T10:43:40.874Z,65.33
2018-08-23T10:46:07.893Z,65.82
2018-08-23T10:48:35.080Z,66.94
2018-08-23T10:51:02.133Z,67.89
2018-08-23T10:53:29.185Z,67.41
2018-08-23T10:55:56.259Z,66.63
2018-08-23T10:58:23.296Z,67.71
2018-08-23T11:00:50.275Z,67.36
2018-08-23T11:03:17.372Z,67.55
2018-08-23T11:05:45.648Z,67.78
2018-08-23T11:08:18.264Z,67.34
2018-08-23T11:10:51.135Z,66.37
2018-08-23T11:13:23.824Z,66.44
2018-08-23T11:15:55.800Z,64.72
2018-08-23T11:18:29.788Z,65.91
2018-08-23T11:20:56.895Z,66.30
2018-08-23T11:23:25.302Z,66.05
2018-08-23T11:25:52.292Z,66.90
2018-08-23T11:28:19.752Z,67.48
2018-08-23T11:30:46.733Z,67.39
2018-08-23T11:33:14.020Z,67.21
2018-08-23T11:35:41.291Z,67.71
2018-08-23T11:38:12.027Z,67.93
2018-08-23T11:40:41.435Z,67.55
2018-08-23T11:43:14.616Z,66.28
2018-08-23T11:45:46.469Z,66.01
2018-08-23T11:48:14.860Z,65.86
2018-08-23T11:50:44.023Z,66.65
2018-08-23T11:56:01.336Z,66.07
2018-08-23T11:58:37.207Z,65.78
2018-08-23T12:01:12.325Z,62.66
2018-08-23T12:03:45.975Z,62.66
2018-08-23T12:06:23.720Z,63.34
2018-08-23T12:08:54.760Z,63.88
2018-08-23T12:11:22.831Z,63.35
2018-08-23T12:13:55.391Z,61.87
2018-08-23T12:16:30.859Z,61.16
2018-08-23T12:18:58.024Z,61.19
2018-08-23T12:21:26.937Z,61.01
2018-08-23T12:23:55.973Z,59.71
2018-08-23T12:26:26.777Z,61.03
2018-08-23T12:29:00.936Z,59.31
2018-08-23T12:31:33.098Z,58.51
2018-08-23T12:34:10.942Z,58.34
2018-08-23T12:36:47.653Z,58.47
2018-08-23T12:39:23.273Z,58.46
2018-08-23T12:41:57.213Z,58.14
2018-08-23T12:44:27.123Z,57.48
2018-08-23T12:47:01.788Z,58.69
2018-08-23T12:49:32.417Z,58.64
2018-08-23T12:52:07.911Z,57.05
2018-08-23T12:54:36.591Z,57.63
2018-08-23T12:57:13.883Z,57.07
2018-08-23T12:59:42.311Z,55.74
2018-08-23T13:02:10.635Z,56.13
2018-08-23T13:04:41.735Z,55.18
2018-08-23T13:07:13.533Z,57.32
2018-08-23T13:09:42.069Z,56.84
2018-08-23T13:12:12.514Z,56.24
2018-08-23T13:14:42.149Z,55.98
2018-08-23T13:17:14.189Z,55.72
2018-08-23T13:19:51.104Z,54.15
2018-08-23T13:22:26.100Z,52.78
2018-08-23T13:25:06.006Z,52.32
2018-08-23T13:27:36.677Z,52.12
2018-08-23T13:30:08.709Z,51.43
2018-08-23T13:32:40.114Z,50.69
2018-08-23T13:35:15.188Z,49.18
2018-08-23T13:37:42.425Z,48.80
2018-08-23T13:40:27.547Z,48.04
2018-08-23T13:43:01.313Z,46.44
2018-08-23T13:45:37.326Z,47.96
2018-08-23T13:48:08.366Z,49.35
2018-08-23T13:50:38.389Z,46.86
2018-08-23T13:53:11.281Z,46.35
2018-08-23T13:55:38.899Z,45.37
2018-08-23T13:58:06.437Z,46.12
2018-08-23T14:00:40.024Z,47.54
2018-08-23T14:03:12.147Z,46.47
2018-08-23T14:05:40.698Z,46.42
2018-08-23T14:10:40.471Z,47.88
2018-08-23T14:13:09.045Z,46.47
2018-08-23T14:15:47.454Z,46.44
2018-08-23T14:18:22.693Z,46.55
2018-08-23T14:20:52.363Z,46.67
2018-08-23T14:23:26.890Z,48.95
2018-08-23T14:26:07.139Z,48.79
2018-08-23T14:28:39.071Z,48.78
2018-08-23T14:31:09.475Z,49.40
2018-08-23T14:33:38.731Z,48.59
2018-08-23T14:36:14.632Z,49.35
2018-08-23T14:38:52.333Z,50.01
2018-08-23T14:41:22.625Z,49.44
2018-08-23T14:43:56.532Z,49.42
2018-08-23T14:46:29.433Z,50.69
2018-08-23T14:48:58.616Z,50.15
2018-08-23T14:51:27.243Z,50.33
2018-08-23T14:53:56.811Z,51.82
2018-08-23T14:56:29.898Z,51.17
2018-08-23T14:59:03.171Z,51.26
2018-08-23T15:01:32.401Z,50.90
2018-08-23T15:04:03.749Z,51.59
2018-08-23T15:06:31.959Z,51.37
2018-08-23T15:09:01.030Z,52.33
2018-08-23T15:11:31.761Z,51.88
2018-08-23T15:14:00.935Z,52.62
2018-08-23T15:16:34.876Z,52.03
2018-08-23T15:19:06.011Z,51.94
2018-08-23T15:21:36.078Z,51.85
2018-08-23T15:24:04.165Z,51.89
2018-08-23T15:26:31.292Z,52.72
2018-08-23T15:28:58.261Z,52.53
2018-08-23T15:31:25.386Z,52.85
2018-08-23T15:33:52.467Z,53.60
2018-08-23T15:36:19.580Z,53.51
2018-08-23T15:38:46.923Z,53.41
2018-08-23T15:41:13.990Z,54.28
2018-08-23T15:43:41.068Z,54.46
2018-08-23T15:46:08.061Z,54.74
2018-08-23T15:48:35.052Z,55.63
2018-08-23T15:51:02.078Z,57.27
2018-08-23T15:53:29.083Z,56.78
2018-08-23T15:55:56.194Z,57.46
2018-08-23T15:58:23.119Z,57.76
2018-08-23T16:00:50.119Z,58.17
2018-08-23T16:03:17.132Z,59.20
2018-08-23T16:05:44.108Z,58.37
2018-08-23T16:08:11.091Z,60.01
2018-08-23T16:10:38.075Z,59.73
2018-08-23T16:13:05.121Z,59.43
2018-08-23T16:15:32.430Z,59.81
2018-08-23T16:18:05.288Z,60.09
2018-08-23T16:20:37.911Z,59.53
2018-08-23T16:23:04.911Z,59.71
2018-08-23T16:25:37.609Z,59.82
2018-08-23T16:28:05.156Z,59.06
2018-08-23T16:30:32.142Z,59.67
2018-08-23T16:32:59.205Z,59.47
2018-08-23T16:35:26.188Z,59.75
2018-08-23T16:37:53.786Z,60.68
2018-08-23T16:40:26.369Z,61.04
2018-08-23T16:42:53.476Z,60.60
2018-08-23T16:45:20.596Z,62.53
2018-08-23T16:47:47.608Z,61.71
2018-08-23T16:50:14.604Z,61.78
2018-08-23T16:52:41.712Z,62.38
2018-08-23T16:55:08.925Z,62.40
2018-08-23T16:57:36.043Z,63.00
2018-08-23T17:00:03.121Z,63.23
2018-08-23T17:02:30.112Z,63.94
2018-08-23T17:04:57.188Z,63.46
2018-08-23T17:07:24.291Z,63.81
2018-08-23T17:09:51.340Z,63.79
2018-08-23T17:12:18.356Z,64.31
2018-08-23T17:14:45.408Z,63.79
2018-08-23T17:17:18.643Z,64.25
2018-08-23T17:19:45.734Z,64.65
2018-08-23T17:22:12.749Z,64.54
2018-08-23T17:24:40.083Z,64.80
2018-08-23T17:27:07.146Z,64.80
2018-08-23T17:29:34.464Z,65.43
2018-08-23T17:32:01.481Z,65.18
2018-08-23T17:34:28.504Z,65.56
2018-08-23T17:36:55.521Z,65.37
2018-08-23T17:39:22.549Z,65.39
2018-08-23T17:41:49.620Z,65.37
2018-08-23T17:44:16.869Z,66.08
2018-08-23T17:46:43.863Z,65.55
2018-08-23T17:49:11.012Z,65.51
2018-08-23T17:51:37.997Z,65.60
2018-08-23T17:54:05.119Z,65.63
2018-08-23T17:56:32.121Z,65.59
2018-08-23T17:58:59.144Z,66.01
2018-08-23T18:01:26.181Z,65.56
2018-08-23T18:03:53.344Z,66.12
2018-08-23T18:06:20.328Z,66.39
2018-08-23T18:08:47.439Z,66.22
2018-08-23T18:11:14.476Z,67.21
2018-08-23T18:13:41.463Z,68.62
2018-08-23T18:17:12.276Z,68.96
2018-08-23T18:19:39.344Z,68.38
2018-08-23T18:22:06.386Z,67.65
2018-08-23T18:24:33.580Z,68.45
2018-08-23T18:27:00.761Z,68.81
2018-08-23T18:29:27.800Z,69.36
2018-08-23T18:31:54.819Z,69.40
2018-08-23T18:34:21.864Z,68.96
2018-08-23T18:36:48.883Z,68.72
2018-08-23T18:39:16.150Z,69.22
2018-08-23T18:41:43.664Z,69.38
2018-08-23T18:44:10.672Z,70.34
2018-08-23T18:46:37.755Z,69.52
2018-08-23T18:49:05.073Z,69.90
2018-08-23T18:51:32.063Z,71.28
2018-08-23T18:53:59.959Z,71.04
2018-08-23T18:56:27.683Z,71.55
2018-08-23T18:58:55.135Z,70.93
2018-08-23T19:01:22.236Z,71.29
2018-08-23T19:03:49.391Z,71.54
2018-08-23T19:06:16.367Z,71.85
2018-08-23T19:08:43.470Z,72.18
2018-08-23T19:11:10.551Z,72.50
2018-08-23T19:13:37.654Z,72.35
2018-08-23T19:17:07.993Z,74.22
2018-08-23T19:19:34.984Z,73.52
2018-08-23T19:22:13.982Z,73.55
2018-08-23T19:27:15.092Z,73.14
2018-08-23T19:29:42.163Z,74.39
2018-08-23T19:32:09.143Z,73.91
2018-08-23T19:34:36.149Z,73.83
2018-08-23T19:37:03.285Z,74.89
2018-08-23T19:39:30.279Z,74.76
2018-08-23T19:41:57.280Z,74.77
2018-08-23T19:47:19.259Z,74.57
2018-08-23T19:49:55.889Z,74.68
2018-08-23T19:52:23.078Z,75.38
2018-08-23T19:54:50.596Z,75.37
2018-08-23T19:57:17.584Z,75.69
2018-08-23T19:59:44.791Z,75.63
2018-08-23T20:02:11.891Z,75.77
2018-08-23T20:04:39.491Z,76.19
2018-08-23T20:07:06.520Z,76.12
2018-08-23T20:09:33.529Z,76.88
2018-08-23T20:12:00.610Z,77.15
2018-08-23T20:14:27.772Z,77.22
2018-08-23T20:16:54.779Z,77.33
2018-08-23T20:19:21.863Z,77.66
2018-08-23T20:21:48.865Z,77.86
2018-08-23T20:24:15.893Z,78.64
2018-08-23T20:26:42.879Z,78.33
2018-08-23T20:29:09.901Z,77.81
2018-08-23T20:31:36.880Z,78.29
2018-08-23T20:34:03.876Z,78.06
2018-08-23T20:36:30.871Z,78.43
2018-08-23T20:38:57.997Z,78.79
2018-08-23T20:41:24.953Z,79.15
2018-08-23T20:43:51.940Z,78.40
2018-08-23T20:46:18.945Z,78.78
2018-08-23T20:48:45.940Z,78.79
2018-08-23T20:51:12.987Z,78.94
2018-08-23T20:53:40.093Z,78.82
2018-08-23T20:56:07.063Z,79.30
2018-08-23T20:58:34.113Z,79.47
2018-08-23T21:01:01.209Z,79.62
2018-08-23T21:03:28.257Z,79.55
2018-08-23T21:05:55.247Z,79.81
2018-08-23T21:08:22.228Z,79.31
2018-08-23T21:10:49.255Z,79.85
2018-08-23T21:13:16.250Z,79.30
2018-08-23T21:15:43.232Z,79.52
2018-08-23T21:18:12.060Z,79.93
2018-08-23T21:20:40.851Z,79.67
2018-08-23T21:23:07.928Z,79.49
2018-08-23T21:25:34.924Z,79.62
2018-08-23T21:28:01.937Z,79.49
2018-08-23T21:30:35.766Z,80.05
2018-08-23T21:33:02.782Z,79.69
2018-08-23T21:35:29.763Z,80.33
2018-08-23T21:37:57.123Z,79.85
2018-08-23T21:40:24.147Z,80.40
2018-08-23T21:42:51.123Z,80.27
2018-08-23T21:45:18.279Z,80.33
2018-08-23T21:47:45.281Z,79.85
2018-08-23T21:50:12.357Z,80.35
2018-08-23T21:52:39.379Z,80.36
2018-08-23T21:55:06.385Z,79.70
2018-08-23T21:57:33.471Z,79.84
2018-08-23T22:00:00.824Z,80.41
2018-08-23T22:02:27.871Z,80.54
2018-08-23T22:04:56.056Z,80.04
2018-08-23T22:07:23.103Z,80.61
2018-08-23T22:09:51.222Z,80.50
2018-08-23T22:12:20.807Z,80.24
2018-08-23T22:14:48.231Z,80.42
2018-08-23T22:17:15.543Z,80.15
2018-08-23T22:19:42.576Z,79.64
2018-08-23T22:22:10.114Z,79.85
2018-08-23T22:24:37.300Z,79.65
2018-08-23T22:27:04.787Z,79.13
2018-08-23T22:29:32.083Z,79.47
2018-08-23T22:31:59.043Z,79.37
2018-08-23T22:34:26.016Z,78.88
2018-08-23T22:36:53.042Z,78.63
2018-08-23T22:39:20.509Z,79.42
2018-08-23T22:41:47.765Z,78.58
2018-08-23T22:44:15.628Z,78.66
2018-08-23T22:46:43.164Z,78.49
2018-08-23T22:49:10.192Z,78.98
2018-08-23T22:51:37.542Z,78.98
2018-08-23T22:54:04.658Z,78.73
2018-08-23T22:56:31.762Z,78.56
2018-08-23T22:58:58.883Z,78.65
2018-08-23T23:06:24.759Z,78.34
2018-08-23T23:08:51.739Z,78.46
2018-08-23T23:11:18.816Z,77.99
2018-08-23T23:13:45.825Z,78.62
2018-08-23T23:16:12.855Z,78.25
2018-08-23T23:18:39.886Z,78.67
2018-08-23T23:21:06.880Z,78.36
2018-08-23T23:23:34.173Z,78.29
2018-08-23T23:26:01.172Z,78.49
2018-08-23T23:28:28.239Z,78.48
2018-08-23T23:30:55.302Z,78.57
2018-08-23T23:33:22.454Z,78.90
2018-08-23T23:35:49.542Z,79.44
2018-08-23T23:38:16.535Z,79.46
2018-08-23T23:40:43.520Z,80.31
2018-08-23T23:43:10.620Z,80.66
2018-08-23T23:45:37.709Z,80.44
2018-08-23T23:48:04.704Z,80.80
2018-08-23T23:50:32.119Z,80.81
2018-08-23T23:52:59.167Z,81.12
2018-08-23T23:55:26.143Z,81.63
2018-08-23T23:57:53.561Z,81.62
